Data for 05/12/2010

Time Sea-Level Adjusted Pressure Absolute Pressure Temperature Relative Humidity Dew Point   
(mb) (inHg) (mb) (inHg) (C) (F) (%) (C) (F)
00:05 1020 30.12 849 25.07 3.3 37.9 81 0.3 32.5
00:10 1020 30.12 849 25.07 3.3 37.9 81 0.3 32.6
00:15 1020 30.12 849 25.07 3.2 37.8 81 0.2 32.4
00:20 1020 30.12 849 25.07 3.3 37.9 80 0.1 32.2
00:25 1020 30.12 849 25.07 3.3 37.9 80 0.2 32.3
00:30 1020 30.12 849 25.07 3.2 37.8 80 0.1 32.2
00:35 1020 30.12 849 25.07 3.2 37.8 81 0.2 32.4
00:40 1020 30.12 849 25.07 3.3 37.9 80 0.1 32.2
00:45 1020 30.12 849 25.07 3.3 37.9 80 0.2 32.4
00:50 1020 30.12 849 25.07 3.2 37.8 81 0.3 32.6
00:55 1020 30.12 849 25.07 3.1 37.7 81 0.2 32.3
01:00 1020 30.12 849 25.07 3.1 37.6 82 0.3 32.5
01:05 1020 30.12 849 25.07 3.1 37.5 82 0.3 32.5
01:10 1020 30.12 849 25.07 3 37.4 82 0.2 32.4
01:15 1020 30.12 849 25.07 3 37.5 82 0.3 32.5
01:20 1020 30.12 849 25.07 3 37.4 82 0.2 32.4
01:25 1020 30.12 849 25.07 3 37.5 82 0.3 32.6
01:30 1020 30.12 849 25.07 3 37.4 83 0.3 32.6
01:35 1020 30.12 849 25.07 3 37.4 82 0.3 32.6
01:40 1020 30.12 849 25.07 3 37.5 82 0.3 32.5
01:45 1020 30.12 849 25.07 3 37.4 82 0.3 32.5
01:50 1020 30.12 849 25.07 3 37.5 82 0.3 32.5
01:55 1020 30.12 849 25.07 3 37.5 82 0.2 32.3
02:00 1020 30.12 849 25.07 3 37.5 81 0.1 32.1
02:05 1020 30.12 849 25.07 3.1 37.5 80 -0 32
02:10 1020 30.12 849 25.07 3.1 37.5 80 0 32
02:15 1020 30.12 849 25.07 3.1 37.5 80 -0 31.9
02:20 1020 30.12 849 25.07 3.1 37.5 79 -0.2 31.6
02:25 1020 30.12 849 25.07 3.1 37.5 79 -0.3 31.5
02:30 1020 30.12 849 25.07 3 37.5 79 -0.3 31.4
02:35 1020 30.12 849 25.07 3 37.5 78 -0.4 31.2
02:40 1020 30.12 849 25.07 3.1 37.5 78 -0.5 31.1
02:45 1020 30.12 849 25.07 3.1 37.5 77 -0.5 31.1
02:50 1020 30.12 849 25.07 3.1 37.5 78 -0.4 31.2
02:55 1020 30.12 849 25.07 3 37.5 77 -0.6 30.8
03:00 1020 30.12 849 25.07 3.1 37.5 76 -0.7 30.7
03:05 1020 30.12 849 25.07 3 37.5 76 -0.7 30.7
03:10 1020 30.12 849 25.07 3 37.5 77 -0.7 30.8
03:15 1020 30.12 849 25.07 3 37.4 77 -0.6 30.8
03:20 1020 30.12 849 25.07 3 37.4 76 -0.8 30.6
03:25 1020 30.12 849 25.07 3.1 37.5 76 -0.8 30.6
03:30 1020 30.12 849 25.07 3 37.5 76 -0.8 30.6
03:35 1020 30.12 849 25.07 3 37.5 76 -0.7 30.7
03:40 1020 30.12 849 25.07 3 37.4 77 -0.7 30.8
03:45 1020 30.12 849 25.07 2.9 37.3 77 -0.8 30.6
03:50 1020 30.12 849 25.07 2.9 37.2 77 -0.7 30.7
03:55 1020 30.12 849 25.07 3 37.3 82 0.2 32.4
04:00 1020 30.12 849 25.07 3.1 37.6 82 0.3 32.6
04:05 1020 30.12 849 25.07 3.1 37.6 82 0.4 32.8
04:10 1020 30.12 849 25.07 3 37.5 83 0.4 32.7
04:15 1020 30.12 849 25.07 3.1 37.5 84 0.6 33.2
04:20 1020 30.12 849 25.07 3 37.4 81 0.1 32.2
04:25 1020 30.12 849 25.07 2.8 37 82 -0.1 31.8
04:30 1020 30.12 849 25.07 2.6 36.7 83 -0 32
04:35 1020 30.12 849 25.07 2.6 36.6 83 -0 32
04:40 1020 30.12 849 25.07 2.5 36.4 84 -0 32
04:45 1020 30.12 849 25.07 2.4 36.4 83 -0.1 31.7
04:50 1020 30.12 849 25.07 2.4 36.4 83 -0.1 31.8
04:55 1020 30.12 849 25.07 2.4 36.4 83 -0.2 31.7
05:00 1020 30.12 849 25.07 2.4 36.3 83 -0.2 31.6
05:05 1020 30.12 849 25.07 2.4 36.3 84 -0.1 31.9
05:10 1020 30.12 849 25.07 2.4 36.3 84 0 32
05:15 1020 30.12 849 25.07 2.4 36.3 84 -0 31.9
05:20 1020 30.12 849 25.07 2.3 36.2 85 -0 32
05:25 1020 30.12 849 25.07 2.3 36.1 85 -0 31.9
05:30 1020 30.12 849 25.07 2.2 36 84 -0.1 31.7
05:35 1020 30.12 849 25.07 2.2 35.9 84 -0.2 31.6
05:40 1020 30.12 849 25.07 2.2 36 83 -0.4 31.3
05:45 1020 30.12 849 25.07 2.3 36.1 83 -0.4 31.3
05:50 1020 30.12 849 25.07 2.3 36.1 82 -0.4 31.3
05:55 1020 30.12 849 25.07 2.3 36.1 83 -0.4 31.3
06:00 1020 30.12 849 25.07 2.3 36.1 82 -0.4 31.2
06:05 1020 30.12 849 25.07 2.3 36.1 82 -0.5 31.1
06:10 1020 30.12 849 25.07 2.3 36.1 82 -0.5 31.2
06:15 1020 30.12 849 25.07 2.3 36.1 82 -0.4 31.2
06:20 1020 30.12 849 25.07 2.3 36.1 82 -0.5 31.1
06:25 1020 30.12 849 25.07 2.3 36.2 82 -0.4 31.3
06:30 1020 30.12 849 25.07 2.3 36.2 82 -0.4 31.2
06:35 1020 30.12 849 25.07 2.3 36.2 82 -0.4 31.2
06:40 1020 30.12 849 25.07 2.3 36.2 82 -0.4 31.2
06:45 1020 30.12 849 25.07 2.3 36.2 82 -0.4 31.3
06:50 1020 30.12 849 25.07 2.3 36.1 82 -0.4 31.2
06:55 1020 30.12 849 25.07 2.3 36.1 82 -0.5 31.1
07:00 1020 30.12 850 25.1 2.3 36.2 82 -0.5 31.2
07:05 1020 30.12 850 25.1 2.4 36.3 82 -0.4 31.4
07:10 1020 30.12 850 25.1 2.4 36.3 81 -0.5 31.1
07:15 1020 30.12 850 25.1 2.6 36.6 81 -0.4 31.3
07:20 1020 30.12 850 25.1 2.6 36.8 80 -0.4 31.3
07:25 1021 30.15 850 25.1 2.6 36.7 80 -0.4 31.2
07:30 1021 30.15 850 25.1 2.6 36.8 81 -0.3 31.5
07:35 1021 30.15 850 25.1 2.7 36.9 80 -0.4 31.4
07:40 1021 30.15 850 25.1 2.9 37.2 78 -0.6 30.9
07:45 1021 30.15 850 25.1 3.1 37.5 77 -0.6 30.9
07:50 1021 30.15 850 25.1 3.1 37.5 77 -0.6 31
07:55 1021 30.15 850 25.1 3.3 38 73 -1 30.2
08:00 1021 30.15 850 25.1 3.4 38.1 73 -0.9 30.4
08:05 1021 30.15 850 25.1 3.3 37.9 74 -0.9 30.3
08:10 1021 30.15 850 25.1 3.3 38 73 -1.1 30
08:15 1021 30.15 850 25.1 3.6 38.4 72 -1 30.2
08:20 1021 30.15 850 25.1 3.6 38.5 72 -1.1 30.1
08:25 1021 30.15 850 25.1 3.7 38.6 71 -1 30.2
08:30 1021 30.15 850 25.1 3.8 38.9 70 -1.1 30
08:35 1021 30.15 850 25.1 3.9 39.1 71 -0.9 30.3
08:40 1021 30.15 850 25.1 3.8 38.8 71 -0.9 30.3
08:45 1021 30.15 850 25.1 3.8 38.8 71 -1.1 30.1
08:50 1021 30.15 850 25.1 3.8 38.8 70 -1.1 30
08:55 1021 30.15 850 25.1 3.8 38.9 72 -0.8 30.6
09:00 1021 30.15 850 25.1 3.9 39 71 -1 30.3
09:05 1021 30.15 850 25.1 3.9 39 71 -1 30.3
09:10 1021 30.15 850 25.1 4 39.3 68 -1.3 29.6
09:15 1021 30.15 850 25.1 4.1 39.5 68 -1.3 29.7
09:20 1021 30.15 850 25.1 4.2 39.6 68 -1.2 29.8
09:25 1021 30.15 850 25.1 4.3 39.7 68 -1.1 30
09:30 1021 30.15 850 25.1 4.3 39.7 67 -1.3 29.7
09:35 1021 30.15 850 25.1 4.4 39.9 67 -1.1 30
09:40 1021 30.15 850 25.1 4.4 39.9 68 -1 30.2
09:45 1021 30.15 850 25.1 4.3 39.7 69 -1 30.2
09:50 1021 30.15 850 25.1 4.1 39.4 72 -0.4 31.3
09:55 1021 30.15 850 25.1 4 39.1 72 -0.5 31
10:00 1021 30.15 850 25.1 4 39.2 70 -0.9 30.4
10:05 1021 30.15 850 25.1 4.1 39.4 70 -0.8 30.6
10:10 1021 30.15 850 25.1 4.4 40 68 -0.8 30.5
10:15 1021 30.15 850 25.1 4.6 40.2 67 -1 30.1
10:20 1021 30.15 850 25.1 4.7 40.4 66 -1.2 29.8
10:25 1021 30.15 850 25.1 4.7 40.4 65 -1.2 29.8
10:30 1021 30.15 850 25.1 4.7 40.5 65 -1.2 29.8
10:35 1021 30.15 850 25.1 5 41 65 -1.1 30
10:40 1021 30.15 850 25.1 5.2 41.3 64 -1 30.2
10:45 1021 30.15 850 25.1 5 41 64 -1.3 29.7
10:50 1021 30.15 850 25.1 5 41 64 -1.3 29.6
10:55 1021 30.15 850 25.1 5.1 41.2 63 -1.4 29.5
11:00 1021 30.15 850 25.1 5.4 41.6 65 -0.8 30.6
11:05 1021 30.15 850 25.1 4.6 40.3 68 -0.8 30.6
11:10 1021 30.15 850 25.1 4.5 40.1 67 -1.1 29.9
11:15 1021 30.15 850 25.1 5.3 41.6 62 -1.4 29.5
11:20 1021 30.15 850 25.1 6 42.9 58 -1.7 28.9
11:25 1021 30.15 850 25.1 5.9 42.6 61 -1.1 30
11:30 1021 30.15 850 25.1 5.7 42.2 61 -1.3 29.7
11:35 1021 30.15 850 25.1 5.8 42.4 59 -1.6 29.2
11:40 1021 30.15 850 25.1 5.7 42.3 60 -1.3 29.6
11:45 1021 30.15 850 25.1 5.8 42.5 60 -1.2 29.8
11:50 1021 30.15 850 25.1 5.5 41.9 67 -0.1 31.9
11:55 1021 30.15 850 25.1 4.5 40.2 73 0.1 32.1
12:00 1021 30.15 850 25.1 4.1 39.3 79 0.8 33.4
12:05 1021 30.15 850 25.1 3.6 38.5 81 0.6 33.1
12:10 1021 30.15 850 25.1 3.3 38 84 0.9 33.7
12:15 1021 30.15 850 25.1 3 37.3 87 1 33.8
12:20 1021 30.15 851 25.13 2.4 36.4 90 0.9 33.7
12:25 1021 30.15 851 25.13 2.3 36.1 90 0.8 33.5
12:30 1021 30.15 850 25.1 2.9 37.1 91 1.6 34.9
12:35 1021 30.15 850 25.1 3.9 39 82 1.2 34.1
12:40 1021 30.15 850 25.1 4.5 40.2 86 2.3 36.2
12:45 1021 30.15 850 25.1 5.4 41.8 82 2.6 36.7
12:50 1021 30.15 850 25.1 5.8 42.4 78 2.2 36
12:55 1021 30.15 850 25.1 5.7 42.3 77 2 35.7
13:00 1021 30.15 850 25.1 5.7 42.3 74 1.5 34.8
13:05 1021 30.15 850 25.1 5.9 42.7 73 1.4 34.5
13:10 1021 30.15 850 25.1 6.2 43.1 72 1.4 34.6
13:15 1021 30.15 850 25.1 6.4 43.5 68 0.9 33.6
13:20 1021 30.15 850 25.1 6.6 43.9 64 0.4 32.7
13:25 1021 30.15 850 25.1 6.6 43.9 64 0.2 32.4
13:30 1021 30.15 850 25.1 6.6 43.9 66 0.8 33.4
13:35 1021 30.15 850 25.1 6.3 43.4 67 0.7 33.2
13:40 1021 30.15 850 25.1 6.5 43.6 65 0.3 32.5
13:45 1021 30.15 850 25.1 7 44.6 60 -0.2 31.6
13:50 1021 30.15 850 25.1 7.7 45.8 56 -0.5 31
13:55 1021 30.15 850 25.1 8 46.3 56 -0.2 31.6
14:00 1021 30.15 850 25.1 7.4 45.4 61 0.5 32.8
14:05 1021 30.15 850 25.1 6.4 43.6 73 2 35.6
14:10 1021 30.15 850 25.1 5.7 42.3 75 1.7 35.1
14:15 1021 30.15 850 25.1 5.3 41.5 76 1.3 34.4
14:20 1021 30.15 850 25.1 5 41 79 1.6 35
14:25 1021 30.15 850 25.1 4.7 40.4 81 1.7 35
14:30 1021 30.15 850 25.1 5.1 41.1 76 1.1 34
14:35 1021 30.15 850 25.1 5.1 41.3 74 0.9 33.5
14:40 1021 30.15 850 25.1 5.2 41.3 73 0.8 33.5
14:45 1021 30.15 850 25.1 5.6 42 72 1 33.8
14:50 1021 30.15 850 25.1 5.3 41.5 70 0.3 32.6
14:55 1021 30.15 850 25.1 5.7 42.2 71 0.9 33.6
15:00 1021 30.15 850 25.1 5.7 42.3 71 0.9 33.6
15:05 1021 30.15 850 25.1 6.1 43 67 0.4 32.8
15:10 1021 30.15 850 25.1 7.2 44.9 64 0.8 33.4
15:15 1021 30.15 850 25.1 8 46.4 61 1 33.8
15:20 1021 30.15 850 25.1 8.7 47.6 59 1 33.9
15:25 1021 30.15 850 25.1 8.9 48.1 56 0.6 33
15:30 1021 30.15 850 25.1 9.8 49.7 53 0.8 33.5
15:35 1021 30.15 850 25.1 9.3 48.7 55 0.6 33.2
15:40 1021 30.15 850 25.1 8.7 47.7 59 1.2 34.2
15:45 1021 30.15 850 25.1 9.2 48.5 53 0.1 32.2
15:50 1021 30.15 850 25.1 9.6 49.3 53 0.6 33.1
15:55 1021 30.15 850 25.1 9.5 49.1 50 -0.2 31.6
16:00 1021 30.15 850 25.1 9.1 48.4 51 -0.4 31.3
16:05 1021 30.15 850 25.1 8.6 47.5 56 0.3 32.5
16:10 1021 30.15 850 25.1 7.1 44.8 60 -0.1 31.9
16:15 1021 30.15 850 25.1 7.2 45 57 -0.6 30.9
16:20 1021 30.15 850 25.1 6.8 44.2 61 -0.3 31.5
16:25 1021 30.15 850 25.1 7.1 44.7 66 1.1 34
16:30 1021 30.15 850 25.1 6 42.8 78 2.4 36.4
16:35 1021 30.15 850 25.1 4.9 40.9 85 2.6 36.7
16:40 1021 30.15 850 25.1 4.2 39.5 87 2.2 35.9
16:45 1021 30.15 850 25.1 3.7 38.7 86 1.6 34.9
16:50 1021 30.15 850 25.1 3.7 38.6 86 1.5 34.7
16:55 1021 30.15 850 25.1 3.7 38.6 84 1.3 34.3
17:00 1021 30.15 850 25.1 3.5 38.3 88 1.6 34.9
17:05 1021 30.15 850 25.1 3.4 38.1 88 1.6 34.8
17:10 1021 30.15 850 25.1 3.4 38.1 89 1.7 35.1
17:15 1021 30.15 850 25.1 3.1 37.6 89 1.4 34.5
17:20 1021 30.15 850 25.1 2.8 37.1 89 1.2 34.2
17:25 1021 30.15 850 25.1 2.9 37.2 89 1.3 34.4
17:30 1021 30.15 850 25.1 3 37.5 88 1.3 34.4
17:35 1021 30.15 850 25.1 3.3 38 88 1.5 34.7
17:40 1021 30.15 850 25.1 3.6 38.6 88 1.8 35.2
17:45 1021 30.15 850 25.1 4 39.2 87 2.1 35.8
17:50 1021 30.15 850 25.1 4.2 39.6 85 1.9 35.5
17:55 1021 30.15 850 25.1 4.3 39.8 86 2.3 36.1
18:00 1021 30.15 850 25.1 4.4 39.9 86 2.2 35.9
18:05 1021 30.15 850 25.1 4.5 40.1 84 2.1 35.8
18:10 1021 30.15 850 25.1 4.9 40.9 79 1.6 35
18:15 1021 30.15 850 25.1 5 41 81 2 35.5
18:20 1021 30.15 850 25.1 5.3 41.5 78 1.7 35.1
18:25 1021 30.15 850 25.1 5.5 41.8 78 1.9 35.4
18:30 1021 30.15 850 25.1 5.4 41.8 78 1.8 35.3
18:35 1021 30.15 850 25.1 5.4 41.8 76 1.6 34.8
18:40 1021 30.15 850 25.1 5.5 41.9 71 0.8 33.4
18:45 1021 30.15 850 25.1 5.5 41.9 74 1.3 34.4
18:50 1021 30.15 850 25.1 5.6 42.1 74 1.3 34.3
18:55 1021 30.15 850 25.1 5.6 42.1 73 1.1 33.9
19:00 1021 30.15 850 25.1 5.8 42.4 68 0.5 32.8
19:05 1021 30.15 850 25.1 5.8 42.4 70 0.7 33.2
19:10 1021 30.15 850 25.1 5.8 42.5 69 0.6 33.1
19:15 1021 30.15 850 25.1 5.8 42.4 69 0.4 32.8
19:20 1021 30.15 850 25.1 5.6 42.2 71 0.8 33.4
19:25 1021 30.15 850 25.1 5.5 42 71 0.7 33.3
19:30 1021 30.15 850 25.1 5.5 42 70 0.6 33
19:35 1021 30.15 850 25.1 5.5 41.9 70 0.5 32.9
19:40 1021 30.15 850 25.1 5.4 41.8 71 0.5 33
19:45 1021 30.15 850 25.1 5.4 41.8 71 0.6 33.1
19:50 1021 30.15 850 25.1 5.4 41.7 71 0.6 33.1
19:55 1021 30.15 850 25.1 5.4 41.7 72 0.8 33.4
20:00 1021 30.15 850 25.1 5.3 41.6 72 0.7 33.3
20:05 1021 30.15 850 25.1 5.3 41.6 72 0.7 33.2
20:10 1021 30.15 850 25.1 5.3 41.5 72 0.7 33.3
20:15 1021 30.15 850 25.1 5.2 41.4 74 0.9 33.6
20:20 1021 30.15 850 25.1 5.1 41.3 73 0.7 33.3
20:25 1021 30.15 850 25.1 5.1 41.2 73 0.7 33.2
20:30 1021 30.15 850 25.1 5.1 41.1 73 0.6 33.1
20:35 1021 30.15 850 25.1 5.1 41.1 73 0.6 33.1
20:40 1021 30.15 850 25.1 5.1 41.1 72 0.4 32.7
20:45 1021 30.15 850 25.1 5.1 41.1 72 0.5 32.9
20:50 1021 30.15 850 25.1 5 41.1 71 0.3 32.5
20:55 1021 30.15 850 25.1 5 41 73 0.5 32.9
21:00 1021 30.15 850 25.1 4.9 40.8 73 0.5 33
21:05 1021 30.15 850 25.1 4.8 40.7 75 0.8 33.4
21:10 1021 30.15 850 25.1 4.8 40.6 75 0.7 33.2
21:15 1021 30.15 850 25.1 4.7 40.5 75 0.6 33.1
21:20 1021 30.15 850 25.1 4.7 40.5 75 0.6 33.1
21:25 1021 30.15 850 25.1 4.7 40.5 74 0.5 32.8
21:30 1021 30.15 850 25.1 4.8 40.6 73 0.4 32.8
21:35 1021 30.15 850 25.1 4.8 40.7 73 0.4 32.7
21:40 1021 30.15 850 25.1 4.8 40.7 73 0.3 32.6
21:45 1021 30.15 850 25.1 4.9 40.8 71 0.1 32.3
21:50 1021 30.15 850 25.1 4.9 40.7 71 0 32
21:55 1021 30.15 851 25.13 4.9 40.7 71 -0 31.9
22:00 1021 30.15 851 25.13 4.9 40.8 69 -0.3 31.5
22:05 1021 30.15 851 25.13 4.9 40.8 70 -0.1 31.7
22:10 1021 30.15 851 25.13 4.8 40.7 70 -0.1 31.7
22:15 1021 30.15 851 25.13 4.7 40.5 71 0 32
22:20 1021 30.15 851 25.13 4.6 40.3 71 -0.1 31.8
22:25 1021 30.15 851 25.13 4.6 40.2 73 0.1 32.1
22:30 1021 30.15 851 25.13 4.5 40 74 0.2 32.3
22:35 1021 30.15 851 25.13 4.3 39.8 75 0.3 32.6
22:40 1021 30.15 851 25.13 4.2 39.6 75 0.1 32.2
22:45 1021 30.15 851 25.13 4.2 39.5 74 0 32
22:50 1021 30.15 851 25.13 4.2 39.5 73 -0.2 31.7
22:55 1021 30.15 851 25.13 4.2 39.6 73 -0.2 31.6
23:00 1021 30.15 851 25.13 4.2 39.5 73 -0.3 31.5
23:05 1021 30.15 851 25.13 4.2 39.5 73 -0.2 31.6
23:10 1021 30.15 850 25.1 4.1 39.4 73 -0.4 31.3
23:15 1021 30.15 850 25.1 4 39.3 74 -0.2 31.6
23:20 1021 30.15 850 25.1 3.8 38.9 76 0 32.1
23:25 1021 30.15 850 25.1 3.5 38.3 77 -0.1 31.9
23:30 1021 30.15 850 25.1 3.4 38.2 76 -0.4 31.3
23:35 1021 30.15 850 25.1 3.4 38.2 77 -0.2 31.6
23:40 1021 30.15 850 25.1 3.4 38 76 -0.4 31.3
23:45 1021 30.15 850 25.1 3.3 37.9 76 -0.5 31
23:50 1021 30.15 850 25.1 3.4 38.1 75 -0.7 30.8
23:55 1021 30.15 850 25.1 3.4 38.1 76 -0.4 31.3
24:00 1021 30.15 850 25.1 3.2 37.8 76 -0.6 30.9